Time;durP1;ratioP1;P1;durP2;ratioP2;P2;SDS_P1;SDS_P2;PMS_P1;PMS_P2;Temp;Humidity;BMP_temperature;BMP_pressure;BME280_temperature;BME280_humidity;BME280_pressure;Samples;Min_cycle;Max_cycle;Signal;HPM_P1;HPM_P2
2022/12/31 00:03:32;;;;;;;38.30;17.42;;;;;;;5.91;69.46;100380.25;7771342;32;37483;-82
2022/12/31 00:07:49;;;;;;;32.78;15.05;;;;;;;6.22;68.72;100391.16;7773909;32;39569;-76
2022/12/31 00:12:05;;;;;;;32.70;15.48;;;;;;;6.41;67.83;100394.66;7774345;32;40253;-79
2022/12/31 00:16:27;;;;;;;29.77;15.32;;;;;;;6.41;67.93;100398.19;7773013;32;38928;-77
2022/12/31 00:20:43;;;;;;;37.20;15.25;;;;;;;6.50;67.51;100401.41;7772341;32;37111;-82
2022/12/31 00:24:59;;;;;;;33.88;14.60;;;;;;;5.95;69.31;100395.00;7767461;32;39156;-83
2022/12/31 00:29:16;;;;;;;32.35;15.52;;;;;;;6.38;69.22;100402.19;7765698;32;40805;-83
2022/12/31 00:33:32;;;;;;;31.67;14.80;;;;;;;6.37;68.34;100407.84;7770692;32;38852;-80
2022/12/31 00:37:50;;;;;;;35.20;14.73;;;;;;;6.16;68.78;100419.97;7774000;32;37368;-81
2022/12/31 00:42:06;;;;;;;36.10;15.05;;;;;;;6.35;67.84;100432.44;7772996;32;40456;-82
2022/12/31 00:46:23;;;;;;;30.12;14.50;;;;;;;6.63;66.90;100439.16;7768113;32;41159;-84
2022/12/31 00:50:40;;;;;;;32.65;14.85;;;;;;;6.42;67.26;100432.34;7767808;32;38248;-84
2022/12/31 00:54:56;;;;;;;29.25;14.30;;;;;;;6.37;67.54;100432.22;7767545;32;37097;-84
2022/12/31 00:59:12;;;;;;;31.37;14.68;;;;;;;6.07;68.36;100440.28;7767904;32;39244;-84
2022/12/31 01:03:29;;;;;;;33.58;15.07;;;;;;;6.41;67.93;100435.28;7768359;32;40720;-83
2022/12/31 01:07:45;;;;;;;35.63;15.52;;;;;;;6.29;68.55;100446.87;7771101;32;38798;-79
2022/12/31 01:12:02;;;;;;;36.20;15.63;;;;;;;6.32;68.47;100445.59;7773514;32;38150;-83
2022/12/31 01:16:21;;;;;;;37.72;16.42;;;;;;;6.22;68.51;100443.44;7773018;32;39237;-81
2022/12/31 01:20:39;;;;;;;34.38;14.90;;;;;;;6.42;67.99;100455.91;7771016;32;40566;-81
2022/12/31 01:24:55;;;;;;;37.30;16.33;;;;;;;6.53;67.74;100461.38;7768553;32;39645;-84
2022/12/31 01:29:13;;;;;;;41.00;18.45;;;;;;;6.36;68.15;100463.91;7769650;32;37183;-83
2022/12/31 01:33:29;;;;;;;41.85;17.67;;;;;;;6.44;67.94;100464.63;7766265;32;38983;-85
2022/12/31 01:37:48;;;;;;;59.10;21.48;;;;;;;6.41;68.15;100468.59;7771233;32;40070;-74
2022/12/31 01:42:04;;;;;;;56.22;22.10;;;;;;;6.25;68.77;100472.75;7770854;32;38355;-84
2022/12/31 01:46:23;;;;;;;63.03;22.30;;;;;;;6.44;67.96;100462.75;7769751;32;38192;-83
2022/12/31 01:50:43;;;;;;;53.40;21.30;;;;;;;6.40;68.05;100472.38;7767089;32;39223;-85
2022/12/31 01:55:27;;;;;;;55.47;22.10;;;;;;;6.23;68.67;100461.34;7765974;32;40464;-85
2022/12/31 01:59:44;;;;;;;43.83;20.60;;;;;;;6.30;68.35;100459.38;7751289;32;37878;-84
2022/12/31 02:04:04;;;;;;;48.28;21.33;;;;;;;6.05;69.24;100474.87;7771877;32;37116;-81
2022/12/31 02:08:20;;;;;;;46.60;20.20;;;;;;;6.32;68.37;100459.16;7771032;32;39484;-79
2022/12/31 02:12:37;;;;;;;50.63;19.15;;;;;;;6.34;68.39;100457.03;7773507;32;41262;-81
2022/12/31 02:16:59;;;;;;;46.88;20.08;;;;;;;6.17;68.84;100467.66;7767778;32;38844;-80
2022/12/31 02:21:28;;;;;;;49.33;20.23;;;;;;;6.21;68.64;100474.28;7767688;32;37325;-84
2022/12/31 02:25:53;;;;;;;53.00;19.73;;;;;;;6.23;68.74;100485.72;7764598;32;40224;-84
2022/12/31 02:30:31;;;;;;;45.80;19.17;;;;;;;6.32;68.43;100492.47;7764194;32;40836;-85
2022/12/31 02:35:03;;;;;;;60.80;20.77;;;;;;;6.23;68.70;100488.41;7767439;32;37653;-83
2022/12/31 02:39:20;;;;;;;48.90;19.62;;;;;;;6.15;68.63;100481.41;7769759;32;37360;-77
2022/12/31 02:43:44;;;;;;;41.70;18.77;;;;;;;6.27;68.72;100478.78;7773736;32;39830;-78
2022/12/31 02:48:06;;;;;;;43.13;18.60;;;;;;;6.33;68.27;100461.63;7768493;32;40359;-83
2022/12/31 02:52:47;;;;;;;45.17;19.40;;;;;;;6.22;68.93;100461.56;7764644;32;38763;-86
2022/12/31 02:57:32;;;;;;;57.28;19.30;;;;;;;6.24;68.54;100464.88;7984008;26;37203;-82
2022/12/31 03:02:12;;;;;;;39.72;17.70;;;;;;;6.28;68.52;100457.94;7735893;32;39287;-82
2022/12/31 03:06:30;;;;;;;42.53;18.52;;;;;;;6.33;68.24;100439.97;7759047;32;40749;-82
2022/12/31 03:10:46;;;;;;;41.13;17.20;;;;;;;6.30;68.39;100450.44;7762602;32;37987;-83
2022/12/31 03:15:05;;;;;;;44.67;17.58;;;;;;;6.37;67.93;100449.28;7762593;32;36916;-83
2022/12/31 03:28:30;;;;;;;42.03;17.35;;;;;;;6.18;68.58;100445.75;7766299;32;38053;-82
2022/12/31 03:32:48;;;;;;;42.50;17.60;;;;;;;6.05;69.26;100456.75;7766297;32;37191;-82
2022/12/31 03:37:04;;;;;;;39.45;18.60;;;;;;;6.11;69.01;100463.16;7766110;32;40163;-83
2022/12/31 03:41:20;;;;;;;38.28;16.60;;;;;;;6.30;68.20;100451.25;7766204;32;39874;-83
2022/12/31 03:45:36;;;;;;;42.97;16.75;;;;;;;6.45;67.90;100467.13;7766057;32;38700;-83
2022/12/31 03:49:52;;;;;;;39.03;17.60;;;;;;;6.47;67.74;100472.28;7766114;32;37239;-82
2022/12/31 03:54:09;;;;;;;39.17;16.67;;;;;;;6.41;67.75;100456.97;7765705;32;40046;-83
2022/12/31 03:58:25;;;;;;;41.53;15.57;;;;;;;6.44;67.89;100451.91;7765840;32;40584;-82
2022/12/31 04:02:41;;;;;;;42.60;15.90;;;;;;;6.27;67.66;100451.69;7765813;32;38823;-83
2022/12/31 04:06:58;;;;;;;37.40;15.43;;;;;;;6.06;69.35;100460.28;7765931;32;37243;-83
2022/12/31 04:11:14;;;;;;;35.10;15.55;;;;;;;6.08;69.36;100464.41;7765466;32;39261;-84
2022/12/31 04:15:35;;;;;;;34.13;14.77;;;;;;;6.09;69.17;100465.22;7765459;32;40024;-83
2022/12/31 04:19:52;;;;;;;34.83;15.70;;;;;;;6.05;69.15;100470.28;7764747;32;38786;-83
2022/12/31 04:24:08;;;;;;;37.67;15.52;;;;;;;6.42;67.98;100485.72;7765653;32;37110;-83
2022/12/31 04:28:24;;;;;;;38.33;16.05;;;;;;;5.98;68.74;100486.59;7765704;32;39834;-83
2022/12/31 04:32:41;;;;;;;36.50;15.23;;;;;;;6.22;68.52;100503.00;7764829;32;40038;-83
2022/12/31 04:36:57;;;;;;;42.08;15.77;;;;;;;6.43;68.28;100506.31;7765265;32;37913;-83
2022/12/31 04:41:16;;;;;;;34.85;16.12;;;;;;;6.15;69.09;100519.31;7765543;32;37852;-83
2022/12/31 04:45:33;;;;;;;42.58;17.17;;;;;;;6.26;68.58;100517.75;7765475;32;40646;-82
2022/12/31 04:49:49;;;;;;;34.65;15.02;;;;;;;6.61;67.52;100525.25;7764883;32;39637;-81
2022/12/31 04:54:05;;;;;;;35.17;16.02;;;;;;;6.53;67.73;100531.78;7765403;32;37626;-82
2022/12/31 04:58:21;;;;;;;40.67;16.00;;;;;;;6.44;67.54;100527.75;7765268;32;36813;-82
2022/12/31 05:02:37;;;;;;;41.85;16.65;;;;;;;6.52;67.77;100532.88;7765276;32;40033;-82
2022/12/31 05:06:54;;;;;;;43.10;16.27;;;;;;;6.25;68.62;100526.91;7765201;32;40921;-82
2022/12/31 05:11:10;;;;;;;37.67;15.10;;;;;;;6.61;67.57;100524.44;7765112;32;38779;-83
2022/12/31 05:15:26;;;;;;;31.80;15.18;;;;;;;6.39;68.22;100525.72;7765144;32;37332;-84
2022/12/31 05:19:43;;;;;;;35.92;15.48;;;;;;;6.81;67.06;100535.00;7765153;32;40037;-82
2022/12/31 05:23:59;;;;;;;33.95;15.43;;;;;;;6.76;67.02;100550.09;7764969;32;40610;-83
2022/12/31 05:28:15;;;;;;;42.28;15.18;;;;;;;6.96;66.07;100562.53;7764922;32;37636;-82
2022/12/31 05:32:32;;;;;;;37.55;15.32;;;;;;;6.99;65.75;100562.09;7764921;32;37278;-82
2022/12/31 05:36:48;;;;;;;35.92;15.48;;;;;;;6.60;66.85;100556.09;7764835;32;39940;-82
2022/12/31 05:41:06;;;;;;;36.47;15.02;;;;;;;6.63;67.34;100550.25;7764754;32;39902;-81
2022/12/31 05:45:22;;;;;;;32.55;15.05;;;;;;;6.63;67.18;100560.25;7762432;32;37817;-82
2022/12/31 05:49:45;;;;;;;32.92;14.18;;;;;;;6.77;66.82;100562.56;7764696;32;38222;-83
2022/12/31 05:54:02;;;;;;;33.75;14.50;;;;;;;6.86;66.50;100570.38;7764554;32;40109;-83
2022/12/31 05:58:18;;;;;;;32.65;14.30;;;;;;;6.69;66.88;100576.44;7764221;32;40052;-84
2022/12/31 06:02:34;;;;;;;30.88;13.38;;;;;;;7.10;65.68;100569.44;7764324;32;38698;-83
2022/12/31 06:06:50;;;;;;;31.83;15.07;;;;;;;7.03;65.69;100579.53;7764273;32;37101;-83
2022/12/31 06:11:07;;;;;;;33.42;14.32;;;;;;;6.92;65.99;100574.91;7764182;32;40614;-83
2022/12/31 06:15:23;;;;;;;30.92;14.27;;;;;;;6.96;65.90;100566.06;7764101;32;39769;-83
2022/12/31 06:19:39;;;;;;;35.15;15.50;;;;;;;7.17;64.97;100574.75;7763907;32;37625;-83
2022/12/31 06:23:55;;;;;;;30.42;13.73;;;;;;;6.86;66.07;100575.81;7763816;32;37711;-82
2022/12/31 06:28:11;;;;;;;31.67;14.02;;;;;;;7.25;64.79;100576.34;7763761;32;39211;-83
2022/12/31 06:32:35;;;;;;;36.00;15.15;;;;;;;7.16;64.96;100583.97;7763663;32;39707;-82
2022/12/31 06:36:51;;;;;;;31.50;15.27;;;;;;;7.06;65.30;100578.28;7763471;32;37711;-83
2022/12/31 06:41:10;;;;;;;32.28;15.05;;;;;;;7.01;65.54;100576.22;7763402;32;37895;-83
2022/12/31 06:45:27;;;;;;;36.78;14.63;;;;;;;7.17;64.90;100579.37;7763401;32;38243;-83
2022/12/31 06:49:43;;;;;;;35.88;14.30;;;;;;;6.90;65.49;100601.41;7763243;32;39765;-83
2022/12/31 06:53:59;;;;;;;35.78;14.20;;;;;;;7.13;65.11;100590.66;7763072;32;38694;-83
2022/12/31 06:58:16;;;;;;;34.13;14.05;;;;;;;7.09;65.12;100597.63;7764627;32;38057;-83
2022/12/31 07:02:45;;;;;;;33.53;13.52;;;;;;;6.99;65.66;100597.34;7766716;32;40051;-83
2022/12/31 07:07:35;;;;;;;33.85;14.48;;;;;;;7.12;65.12;100612.59;7766732;32;40953;-84
2022/12/31 13:51:17;;;;;;;51.15;23.83;;;;;;;5.16;82.12;100645.34;7831281;31;289511;-82
2022/12/31 13:55:43;;;;;;;46.47;23.55;;;;;;;6.65;76.01;100637.53;7771926;32;39750;-84
2022/12/31 14:00:03;;;;;;;58.65;25.37;;;;;;;7.87;70.85;100650.13;7770877;32;38111;-83
2022/12/31 14:04:46;;;;;;;48.80;21.92;;;;;;;8.42;68.35;100634.59;7793551;32;37187;-81
2022/12/31 14:09:03;;;;;;;46.80;22.03;;;;;;;9.11;66.26;100631.22;7783324;32;39076;-83
2022/12/31 14:14:14;;;;;;;46.03;20.27;;;;;;;9.32;64.27;100632.44;7784307;32;40995;-80
2022/12/31 14:18:45;;;;;;;48.67;22.35;;;;;;;9.36;64.67;100631.69;7714789;32;38789;-82
2022/12/31 14:23:28;;;;;;;49.58;22.92;;;;;;;9.38;63.49;100640.44;7801450;32;36805;-83
2022/12/31 14:27:45;;;;;;;62.65;29.17;;;;;;;9.55;63.08;100642.38;7785137;32;39114;-84
2022/12/31 14:32:19;;;;;;;53.92;25.25;;;;;;;9.81;62.13;100623.78;7783795;32;39900;-84
2022/12/31 14:37:10;;;;;;;59.20;24.08;;;;;;;10.04;60.80;100629.06;7771299;32;38066;-85
2022/12/31 14:41:49;;;;;;;55.33;25.77;;;;;;;9.67;61.27;100640.41;7721190;32;37047;-84
2022/12/31 14:46:26;;;;;;;49.95;23.73;;;;;;;9.88;60.61;100629.87;7783788;32;39689;-85
2022/12/31 14:50:45;;;;;;;53.42;25.17;;;;;;;9.75;61.07;100648.19;7787851;32;40752;-87
2022/12/31 14:55:08;;;;;;;52.90;25.40;;;;;;;9.92;60.74;100647.41;7789392;32;37960;-86
2022/12/31 14:59:27;;;;;;;;;;;;;;;9.40;62.16;100646.47;7784595;32;37884;-86
2022/12/31 15:03:44;;;;;;;52.55;23.83;;;;;;;9.62;61.12;100645.75;7787152;32;39680;-85
2022/12/31 15:08:20;;;;;;;54.10;25.75;;;;;;;9.55;61.30;100658.72;7778841;32;39322;-82
2022/12/31 15:13:05;;;;;;;50.03;23.45;;;;;;;9.51;61.56;100663.81;7757860;32;38044;-84
2022/12/31 15:17:35;;;;;;;48.75;24.00;;;;;;;9.66;61.36;100652.38;7737894;32;37717;-85
2022/12/31 15:22:26;;;;;;;49.50;25.70;;;;;;;9.66;61.31;100660.56;7690463;32;38754;-85
2022/12/31 15:26:51;;;;;;;57.88;26.37;;;;;;;9.42;62.03;100683.47;7701042;32;39890;-83
2022/12/31 15:31:14;;;;;;;52.15;25.27;;;;;;;9.39;61.92;100685.63;7693504;32;38153;-84
2022/12/31 15:35:47;;;;;;;58.83;28.33;;;;;;;9.33;62.21;100689.34;7705323;32;37795;-83
2022/12/31 15:40:24;;;;;;;62.88;28.58;;;;;;;9.23;62.47;100683.69;7696835;32;39087;-83
2022/12/31 15:45:00;;;;;;;65.87;31.83;;;;;;;9.33;62.08;100675.72;7696088;32;39929;-84
2022/12/31 15:49:21;;;;;;;56.35;27.87;;;;;;;9.47;61.33;100678.13;7692335;32;37927;-86
2022/12/31 15:53:51;;;;;;;59.10;27.17;;;;;;;9.59;61.09;100681.66;7691258;32;37197;-84
2022/12/31 15:58:13;;;;;;;71.35;28.90;;;;;;;9.44;61.70;100689.53;7689200;32;38208;-84
2022/12/31 16:02:29;;;;;;;59.80;27.58;;;;;;;9.35;62.10;100700.78;7688275;32;39624;-85
2022/12/31 16:06:46;;;;;;;54.22;26.98;;;;;;;9.42;61.65;100697.09;7684453;32;36087;-84
2022/12/31 16:11:07;;;;;;;57.20;27.00;;;;;;;9.22;62.01;100682.03;7691278;32;36737;-85
2022/12/31 16:15:27;;;;;;;61.55;29.27;;;;;;;9.31;61.80;100686.03;7689875;32;40002;-85
2022/12/31 16:19:47;;;;;;;61.30;30.02;;;;;;;9.28;62.03;100675.62;7694119;32;39622;-85
2022/12/31 16:24:05;;;;;;;64.68;29.40;;;;;;;9.31;62.05;100686.03;7685421;32;38572;-84
2022/12/31 16:28:23;;;;;;;71.12;33.47;;;;;;;9.36;61.61;100688.00;7707167;32;38245;-84
2022/12/31 16:32:41;;;;;;;63.15;33.08;;;;;;;9.05;62.32;100703.69;7693418;32;39012;-85
2022/12/31 16:37:03;;;;;;;64.80;31.20;;;;;;;9.20;62.09;100697.75;7697510;32;40587;-85
2022/12/31 16:41:20;;;;;;;65.12;31.17;;;;;;;9.08;62.71;100688.81;7707832;32;37639;-84
2022/12/31 16:45:37;;;;;;;64.25;28.90;;;;;;;8.86;63.42;100704.91;7698025;32;37176;-84
2022/12/31 16:50:02;;;;;;;62.40;29.37;;;;;;;9.13;62.75;100695.16;7701970;32;39226;-83
2022/12/31 16:54:34;;;;;;;56.03;28.25;;;;;;;9.32;62.32;100706.72;7681368;32;40901;-84
2022/12/31 16:59:05;;;;;;;58.50;27.77;;;;;;;9.34;62.15;100706.47;7693074;32;36248;-84
2022/12/31 17:03:27;;;;;;;54.53;27.40;;;;;;;9.44;61.83;100714.03;7697767;32;36799;-86
2022/12/31 17:07:43;;;;;;;62.62;30.98;;;;;;;9.29;62.34;100709.91;7695008;32;39723;-85
2022/12/31 17:12:15;;;;;;;61.28;29.95;;;;;;;9.30;62.11;100718.94;7695211;32;39577;-83
2022/12/31 17:16:32;;;;;;;54.58;27.67;;;;;;;9.19;62.62;100731.47;7694253;32;37573;-86
2022/12/31 17:20:51;;;;;;;59.53;28.75;;;;;;;9.20;62.60;100723.06;7693121;32;38110;-86
2022/12/31 17:25:08;;;;;;;57.40;28.77;;;;;;;9.29;62.42;100720.78;7700175;32;38925;-86
2022/12/31 17:29:24;;;;;;;53.30;28.60;;;;;;;9.30;62.37;100711.56;7693552;32;40747;-84
2022/12/31 17:33:41;;;;;;;68.03;32.47;;;;;;;9.33;62.25;100705.66;7699501;32;37624;-84
2022/12/31 17:38:16;;;;;;;60.40;30.55;;;;;;;9.23;62.88;100700.00;7707551;32;35638;-85
2022/12/31 17:42:35;;;;;;;71.72;34.53;;;;;;;9.31;62.31;100690.63;7706346;32;39164;-85
2022/12/31 17:46:52;;;;;;;59.17;31.30;;;;;;;9.03;62.43;100695.78;7697580;32;40141;-83
2022/12/31 17:51:08;;;;;;;76.97;36.50;;;;;;;9.08;63.06;100703.22;7685082;32;37565;-82
2022/12/31 17:55:25;;;;;;;76.43;35.42;;;;;;;9.18;62.19;100694.47;7688024;32;36892;-83
2022/12/31 17:59:41;;;;;;;75.37;36.58;;;;;;;9.28;61.70;100689.22;7704707;32;39606;-84
2022/12/31 18:03:57;;;;;;;58.80;31.65;;;;;;;9.08;62.52;100697.78;7709033;32;40139;-84
2022/12/31 18:08:13;;;;;;;61.45;28.52;;;;;;;9.15;62.62;100709.34;7704803;32;38872;-85
2022/12/31 18:12:30;;;;;;;81.37;38.08;;;;;;;9.13;62.93;100721.56;7704390;32;36378;-86
2022/12/31 18:16:47;;;;;;;74.28;37.28;;;;;;;9.10;62.59;100739.16;7707168;32;39124;-85
2022/12/31 18:21:06;;;;;;;73.68;35.92;;;;;;;9.02;62.90;100743.09;7697664;32;39632;-86
2022/12/31 18:25:23;;;;;;;68.57;38.42;;;;;;;9.00;62.90;100741.66;7703505;32;38517;-85
2022/12/31 18:29:39;;;;;;;77.25;34.42;;;;;;;9.12;62.88;100741.66;7702226;32;36770;-84
2022/12/31 18:33:57;;;;;;;82.85;42.55;;;;;;;8.91;63.35;100746.63;7690999;32;39972;-85
2022/12/31 18:38:16;;;;;;;88.78;49.63;;;;;;;8.94;63.29;100757.06;7701063;32;39187;-85
2022/12/31 18:42:32;;;;;;;71.87;34.60;;;;;;;8.95;63.33;100753.28;7709016;32;36941;-86
2022/12/31 18:46:49;;;;;;;75.53;33.67;;;;;;;8.93;63.20;100749.13;7707744;32;37138;-85
2022/12/31 18:51:06;;;;;;;69.53;32.85;;;;;;;8.87;63.39;100745.47;7690447;32;39885;-85
2022/12/31 18:55:38;;;;;;;68.87;35.30;;;;;;;9.03;62.67;100752.91;7694062;32;40915;-84
2022/12/31 18:59:54;;;;;;;68.10;33.30;;;;;;;8.92;62.83;100759.19;7676891;32;38036;-84
2022/12/31 19:04:18;;;;;;;52.80;28.35;;;;;;;9.08;62.14;100752.19;7708501;32;37189;-84
2022/12/31 19:08:42;;;;;;;59.40;28.58;;;;;;;8.97;61.87;100751.12;7704256;32;39880;-84
2022/12/31 19:12:58;;;;;;;59.45;27.52;;;;;;;8.61;62.50;100758.47;7684874;32;39993;-85
2022/12/31 19:17:14;;;;;;;51.28;27.25;;;;;;;8.78;62.11;100750.44;7700530;32;38735;-85
2022/12/31 19:21:31;;;;;;;55.65;28.05;;;;;;;8.78;62.13;100744.19;7707324;32;38334;-83
2022/12/31 19:25:48;;;;;;;53.08;28.55;;;;;;;8.89;62.63;100748.78;7711518;32;38812;-87
2022/12/31 19:30:04;;;;;;;56.60;27.52;;;;;;;8.73;62.98;100734.00;7709144;32;40739;-88
2022/12/31 19:34:21;;;;;;;45.17;25.48;;;;;;;8.68;62.74;100724.91;7708823;32;37603;-88
2022/12/31 19:38:37;;;;;;;49.20;25.42;;;;;;;8.54;63.03;100730.56;7709910;32;36658;-85
2022/12/31 19:42:54;;;;;;;51.88;26.77;;;;;;;8.76;62.78;100732.69;7709021;32;38982;-86
2022/12/31 19:47:12;;;;;;;51.80;28.23;;;;;;;8.43;64.29;100713.19;7708986;32;40083;-86
2022/12/31 19:51:28;;;;;;;57.65;28.90;;;;;;;8.55;64.47;100709.66;7694971;32;37874;-86
2022/12/31 19:55:44;;;;;;;50.83;27.85;;;;;;;8.65;64.74;100710.72;7710035;32;37880;-86
2022/12/31 20:00:00;;;;;;;50.25;26.12;;;;;;;8.42;65.69;100716.13;7711262;32;39904;-86
2022/12/31 20:04:17;;;;;;;55.42;28.00;;;;;;;8.81;64.32;100719.22;7709471;32;39957;-85
2022/12/31 20:08:34;;;;;;;51.00;26.85;;;;;;;8.81;64.28;100728.22;7708181;32;38544;-85
2022/12/31 20:12:51;;;;;;;56.85;29.00;;;;;;;8.61;64.50;100731.28;7703246;32;37218;-85
2022/12/31 20:17:09;;;;;;;59.67;28.20;;;;;;;8.70;63.55;100728.22;7709746;32;39982;-85
2022/12/31 20:21:27;;;;;;;67.78;32.92;;;;;;;8.38;63.99;100728.50;7709815;32;39557;-84
2022/12/31 20:25:44;;;;;;;66.00;33.20;;;;;;;8.56;63.39;100725.72;7702387;32;38180;-85
2022/12/31 20:30:00;;;;;;;69.25;34.85;;;;;;;8.42;63.91;100725.13;7709639;32;37151;-85
2022/12/31 20:34:16;;;;;;;72.97;35.03;;;;;;;8.19;65.23;100722.31;7709231;32;39258;-85
2022/12/31 20:38:33;;;;;;;55.28;29.90;;;;;;;8.28;64.66;100720.94;7709364;32;39485;-85
2022/12/31 20:42:49;;;;;;;66.57;30.80;;;;;;;8.24;64.84;100715.16;7709541;32;37846;-85
2022/12/31 20:47:05;;;;;;;68.55;32.05;;;;;;;8.24;65.12;100717.03;7709302;32;36851;-85
2022/12/31 20:51:23;;;;;;;71.12;34.47;;;;;;;8.11;65.11;100709.09;7701663;32;39074;-84
2022/12/31 20:55:41;;;;;;;56.20;31.17;;;;;;;8.04;65.11;100725.50;7709667;32;39921;-85
2022/12/31 20:59:59;;;;;;;105.30;48.13;;;;;;;7.85;65.18;100735.59;7707473;32;38670;-85
2022/12/31 21:04:16;;;;;;;58.95;30.65;;;;;;;8.03;64.17;100740.12;7705913;32;38041;-85
2022/12/31 21:08:32;;;;;;;69.20;35.88;;;;;;;8.13;63.45;100743.09;7683608;32;40005;-84
2022/12/31 21:12:52;;;;;;;76.28;36.85;;;;;;;8.10;63.33;100749.00;7688094;32;40823;-82
2022/12/31 21:17:09;;;;;;;68.93;35.65;;;;;;;7.96;64.22;100750.25;7696592;32;38057;-83
2022/12/31 21:21:25;;;;;;;66.43;31.92;;;;;;;7.87;64.95;100752.47;7702856;32;36828;-83
2022/12/31 21:25:43;;;;;;;75.57;36.88;;;;;;;8.10;63.94;100746.28;7700657;32;39286;-82
2022/12/31 21:30:01;;;;;;;80.43;38.83;;;;;;;7.94;63.72;100750.50;7687194;32;40633;-83
2022/12/31 21:34:34;;;;;;;64.95;30.98;;;;;;;8.14;63.23;100752.94;7683155;32;37953;-84
2022/12/31 21:38:51;;;;;;;82.72;37.65;;;;;;;7.96;63.23;100744.84;7691833;32;37250;-84
2022/12/31 21:43:08;;;;;;;101.03;49.25;;;;;;;7.80;64.19;100752.56;7708460;32;38931;-84
2022/12/31 21:56:37;;;;;;;65.78;32.40;;;;;;;8.02;65.54;100777.31;7709682;32;36836;-84
2022/12/31 22:05:30;;;;;;;65.93;32.83;;;;;;;7.99;66.02;100766.09;7671560;32;39476;-85
2022/12/31 22:09:46;;;;;;;76.22;36.85;;;;;;;7.96;66.37;100766.56;7683000;32;38667;-84
2022/12/31 22:14:02;;;;;;;68.00;35.38;;;;;;;7.75;66.22;100771.44;7685914;32;37912;-85
2022/12/31 22:18:19;;;;;;;65.90;33.83;;;;;;;7.87;65.48;100757.91;7685996;32;39310;-84
2022/12/31 22:22:35;;;;;;;63.83;32.78;;;;;;;7.72;65.87;100750.97;7685631;32;39643;-85
2022/12/31 22:26:54;;;;;;;72.05;36.80;;;;;;;7.93;64.96;100756.16;7685720;32;38861;-84
2022/12/31 22:31:14;;;;;;;74.10;35.35;;;;;;;7.79;66.07;100750.06;7689849;32;37849;-85
2022/12/31 22:35:30;;;;;;;90.90;42.38;;;;;;;7.85;65.73;100752.69;7702367;32;39316;-85
2022/12/31 22:39:46;;;;;;;92.37;40.72;;;;;;;7.76;66.64;100758.66;7711965;32;40123;-83
2022/12/31 22:44:03;;;;;;;79.47;38.92;;;;;;;7.90;66.19;100766.41;7711729;32;38034;-83
2022/12/31 22:48:20;;;;;;;81.93;36.78;;;;;;;7.84;66.52;100775.47;7711481;32;38002;-84
2022/12/31 22:52:36;;;;;;;70.70;34.97;;;;;;;7.95;66.11;100763.03;7704185;32;39173;-86
2022/12/31 22:56:52;;;;;;;68.40;35.63;;;;;;;7.97;65.83;100758.19;7712005;32;39963;-85
2022/12/31 23:01:33;;;;;;;64.85;32.60;;;;;;;7.92;66.77;100749.03;7706309;32;38861;-84
2022/12/31 23:05:51;;;;;;;73.75;36.65;;;;;;;7.95;66.70;100752.16;7705165;32;36890;-84
2022/12/31 23:23:53;;;;;;;81.65;37.55;;;;;;;7.60;67.51;100736.53;7707856;32;37964;-84
2022/12/31 23:28:17;;;;;;;85.70;39.03;;;;;;;7.76;66.50;100732.37;7709943;32;39048;-84
2022/12/31 23:32:33;;;;;;;88.72;38.63;;;;;;;7.64;66.93;100731.47;7705782;32;40823;-84
2022/12/31 23:36:49;;;;;;;99.03;40.40;;;;;;;7.75;66.68;100732.59;7710942;32;37633;-84
2022/12/31 23:41:17;;;;;;;83.37;39.63;;;;;;;7.94;66.03;100746.97;7711259;32;37687;-84
2022/12/31 23:45:34;;;;;;;92.75;40.60;;;;;;;7.81;66.52;100748.81;7711135;32;39959;-85
2022/12/31 23:49:50;;;;;;;129.75;42.13;;;;;;;7.91;66.43;100748.22;7711496;32;39942;-85
2022/12/31 23:54:06;;;;;;;201.15;45.20;;;;;;;8.09;65.88;100733.78;7703014;32;38734;-84
2022/12/31 23:58:23;;;;;;;144.05;39.67;;;;;;;8.07;65.88;100733.16;7711634;32;37499;-84
